Terminal Aerodrome Forecast
Issued by NWS

Home | Current Version | Previous Version | Text Only | Print | Product List | Glossary On
Versions: 1 2 3 4 5 6 7 8 9 10 11 12 13 14 15 16 17 18 19 20 21 22 23 24 25 26 27 28
000
FTUS41 KBTV 240308 AAA
TAFSLK
TAF AMD
KSLK 240308Z 2403/2424 00000KT 4SM BR OVC050
      TEMPO 2403/2407 1SM BR BKN010
     FM240800 14012KT 5SM -RA OVC012
     FM241100 14010KT 3SM RA BR OVC007
     FM241500 18010KT 5SM BR OVC007
     FM242000 22010KT P6SM OVC015=

USA.gov is the U.S. government's official web portal to all federal, state and local government web resources and services.